Time;durP1;ratioP1;P1;durP2;ratioP2;P2;SDS_P1;SDS_P2;PMS_P1;PMS_P2;Temp;Humidity;BMP_temperature;BMP_pressure;BME280_temperature;BME280_humidity;BME280_pressure;Samples;Min_cycle;Max_cycle;Signal;HPM_P1;HPM_P2
2022/01/26 00:07:41;;;;;;;69.00;27.30;;;5.00;99.90;;;;;;6035920;23;20019;-87
2022/01/26 00:10:08;;;;;;;71.53;29.47;;;5.10;99.90;;;;;;6110011;23;20029;-88
2022/01/26 00:12:39;;;;;;;71.60;30.03;;;5.00;99.90;;;;;;6154685;23;20006;-88
2022/01/26 00:15:05;;;;;;;68.87;28.63;;;5.00;99.90;;;;;;6155731;23;20385;-88
2022/01/26 00:17:34;;;;;;;69.30;29.13;;;5.00;99.90;;;;;;6155604;23;20005;-88
2022/01/26 00:20:11;;;;;;;68.43;27.08;;;5.00;99.90;;;;;;6129136;23;20021;-87
2022/01/26 00:28:07;;;;;;;68.60;27.10;;;5.00;99.90;;;;;;6155573;23;20323;-88
2022/01/26 00:38:55;;;;;;;73.67;30.03;;;5.00;99.90;;;;;;6154771;23;20450;-87
2022/01/26 00:41:34;;;;;;;55.65;22.95;;;5.00;99.90;;;;;;6155953;23;20080;-88
2022/01/26 00:44:00;;;;;;;78.67;30.20;;;4.90;99.90;;;;;;6155696;23;20478;-88
2022/01/26 00:46:26;;;;;;;74.83;29.87;;;5.00;99.90;;;;;;6155936;23;20014;-88
2022/01/26 00:48:53;;;;;;;71.80;28.17;;;5.00;99.90;;;;;;6155025;23;20002;-88
2022/01/26 00:51:21;;;;;;;73.10;30.03;;;5.00;99.90;;;;;;6155821;23;20076;-88
2022/01/26 00:53:58;;;;;;;70.87;29.80;;;5.00;99.90;;;;;;6155182;23;20076;-87
2022/01/26 00:56:24;;;;;;;74.63;31.07;;;5.00;99.90;;;;;;6155667;23;20012;-88
2022/01/26 00:58:50;;;;;;;74.60;30.23;;;5.00;99.90;;;;;;6154825;23;20317;-87
2022/01/26 01:01:16;;;;;;;79.23;30.43;;;5.00;99.90;;;;;;6129747;23;20009;-88
2022/01/26 01:03:45;;;;;;;77.53;30.43;;;5.00;99.90;;;;;;6155271;23;20017;-87
2022/01/26 01:08:41;;;;;;;78.67;32.30;;;4.90;99.90;;;;;;6154796;23;20006;-88
2022/01/26 01:11:12;;;;;;;76.43;31.57;;;5.00;99.90;;;;;;6154566;23;20005;-86
2022/01/26 01:13:41;;;;;;;75.75;30.80;;;5.10;99.90;;;;;;6155110;23;20015;-88
2022/01/26 01:16:16;;;;;;;73.43;32.80;;;5.00;99.90;;;;;;6155326;23;20427;-87
2022/01/26 01:29:37;;;;;;;74.33;32.10;;;5.00;99.90;;;;;;6155277;23;20001;-87
2022/01/26 01:32:11;;;;;;;78.27;31.70;;;4.90;99.90;;;;;;6129113;23;20024;-88
2022/01/26 01:34:40;;;;;;;78.43;32.97;;;5.00;99.90;;;;;;6127844;23;20037;-87
2022/01/26 01:37:15;;;;;;;81.43;33.03;;;5.00;99.90;;;;;;6153391;23;20084;-87
2022/01/26 01:39:41;;;;;;;79.53;34.20;;;5.00;99.90;;;;;;6153726;23;20013;-87
2022/01/26 01:42:10;;;;;;;80.37;34.23;;;5.00;99.90;;;;;;6128080;23;20016;-88
2022/01/26 01:44:38;;;;;;;83.20;34.10;;;5.00;99.90;;;;;;6152963;23;20097;-87
2022/01/26 01:47:06;;;;;;;78.63;34.53;;;5.00;99.90;;;;;;6129051;23;20428;-86
2022/01/26 01:49:32;;;;;;;80.17;33.37;;;5.00;99.90;;;;;;6154885;23;20006;-87
2022/01/26 01:52:02;;;;;;;81.40;34.47;;;5.10;99.90;;;;;;6153483;23;20136;-87
2022/01/26 01:54:32;;;;;;;78.23;35.03;;;5.00;99.90;;;;;;6154865;23;20009;-87
2022/01/26 01:56:58;;;;;;;80.77;34.70;;;5.10;99.90;;;;;;6154875;23;20009;-87
2022/01/26 01:59:29;;;;;;;87.37;36.77;;;5.00;99.90;;;;;;6153385;23;20061;-87
2022/01/26 02:01:56;;;;;;;87.67;37.20;;;5.00;99.90;;;;;;6154959;23;20013;-87
2022/01/26 02:04:22;;;;;;;92.10;38.67;;;4.90;99.90;;;;;;6154442;23;20055;-87
2022/01/26 02:06:48;;;;;;;90.00;37.57;;;4.90;99.90;;;;;;6154845;23;20080;-87
2022/01/26 02:09:14;;;;;;;91.23;37.73;;;4.90;99.90;;;;;;6128874;23;20005;-86
2022/01/26 02:11:48;;;;;;;88.10;38.43;;;4.90;99.90;;;;;;6155170;23;20013;-87
2022/01/26 02:14:22;;;;;;;99.67;39.43;;;4.90;99.90;;;;;;6154564;23;20005;-87
2022/01/26 02:17:02;;;;;;;95.53;38.87;;;4.90;99.90;;;;;;6154748;23;20013;-87
2022/01/26 02:59:48;;;;;;;124.15;45.53;;;4.70;99.90;;;;;;6153300;23;20060;-87
2022/01/26 03:02:32;;;;;;;129.07;45.67;;;4.80;99.90;;;;;;6128033;23;20523;-87
2022/01/26 03:05:00;;;;;;;126.87;47.90;;;4.80;99.90;;;;;;6154386;23;20013;-87
2022/01/26 03:07:43;;;;;;;122.03;46.85;;;4.80;99.90;;;;;;6154838;23;20009;-88
2022/01/26 03:10:35;;;;;;;120.87;44.97;;;4.80;99.90;;;;;;6154192;23;20009;-87
2022/01/26 03:13:05;;;;;;;124.25;47.75;;;4.80;99.90;;;;;;6152436;23;20009;-87
2022/01/26 03:15:40;;;;;;;115.90;45.40;;;4.80;99.90;;;;;;6128199;23;20009;-88
2022/01/26 03:20:52;;;;;;;123.20;46.47;;;4.90;99.90;;;;;;6154299;23;20017;-88
2022/01/26 03:34:15;;;;;;;123.47;46.93;;;4.80;99.90;;;;;;6152846;23;20012;-87
2022/01/26 03:37:04;;;;;;;115.43;43.37;;;4.80;99.90;;;;;;6154275;23;20006;-87
2022/01/26 03:39:32;;;;;;;124.45;47.05;;;4.80;99.90;;;;;;6154108;23;20033;-87
2022/01/26 03:42:09;;;;;;;121.83;45.77;;;4.90;99.90;;;;;;6154227;23;20006;-87
2022/01/26 03:44:35;;;;;;;111.77;43.73;;;4.90;99.90;;;;;;6153952;23;20006;-87
2022/01/26 03:47:01;;;;;;;118.23;44.00;;;4.90;99.90;;;;;;6154356;23;20002;-87
2022/01/26 03:49:28;;;;;;;114.00;45.13;;;4.90;99.90;;;;;;6154583;23;20009;-87
2022/01/26 03:51:54;;;;;;;118.00;46.43;;;4.80;99.90;;;;;;6154246;23;20037;-87
2022/01/26 03:54:21;;;;;;;118.70;44.60;;;4.80;99.90;;;;;;6152349;23;20093;-86
2022/01/26 03:56:47;;;;;;;121.17;45.87;;;4.80;99.90;;;;;;6154287;23;20014;-87
2022/01/26 03:59:15;;;;;;;118.37;44.27;;;4.80;99.90;;;;;;6154063;23;20088;-87
2022/01/26 04:01:41;;;;;;;118.23;45.97;;;5.00;99.90;;;;;;6154601;23;20411;-87
2022/01/26 04:04:07;;;;;;;117.50;43.80;;;4.80;99.90;;;;;;6127630;23;20023;-88
2022/01/26 04:12:53;;;;;;;119.50;45.50;;;4.80;99.90;;;;;;6158184;23;20012;-87
2022/01/26 04:15:27;;;;;;;120.73;44.97;;;4.80;99.90;;;;;;6214131;23;20016;-87
2022/01/26 04:17:53;;;;;;;124.33;44.30;;;4.80;99.90;;;;;;6213998;23;20005;-86
2022/01/26 04:20:20;;;;;;;127.20;46.00;;;4.90;99.90;;;;;;6162697;23;20054;-86
2022/01/26 04:22:55;;;;;;;118.47;45.30;;;4.80;99.90;;;;;;6187322;23;20077;-87
2022/01/26 04:25:42;;;;;;;117.27;43.23;;;4.80;99.90;;;;;;6212784;23;20029;-87
2022/01/26 04:40:30;;;;;;;;;;;;;;;;;;;;;
2022/01/26 04:44:27;;;;;;;;;;;;;;;;;;;;;
2022/01/26 04:46:57;;;;;;;133.07;46.53;;;4.80;99.90;;;;;;6117885;23;20452;-87
2022/01/26 04:49:43;;;;;;;129.75;44.80;;;4.70;99.90;;;;;;6124584;23;20010;-87
2022/01/26 04:52:30;;;;;;;;;;;;;;;;;;;;;
2022/01/26 04:55:42;;;;;;;125.87;43.00;;;4.70;99.90;;;;;;6101573;23;20085;-86
2022/01/26 04:59:13;;;;;;;;;;;;;;;;;;;;;
2022/01/26 05:10:39;;;;;;;116.13;40.37;;;4.60;99.90;;;;;;6025409;23;20093;-87
2022/01/26 05:14:10;;;;;;;111.20;38.97;;;4.50;99.90;;;;;;5922773;24;20024;-87
2022/01/26 05:17:26;;;;;;;123.73;42.73;;;4.50;99.90;;;;;;5926222;24;20016;-85
2022/01/26 05:19:56;;;;;;;114.33;38.70;;;4.50;99.90;;;;;;5969665;23;20017;-87
2022/01/26 05:22:22;;;;;;;119.03;42.00;;;4.50;99.90;;;;;;6177688;23;20046;-83
2022/01/26 05:24:48;;;;;;;117.60;41.33;;;4.50;99.90;;;;;;6152353;23;20009;-87
2022/01/26 05:27:14;;;;;;;111.60;40.40;;;4.50;99.90;;;;;;6125695;23;20062;-82
2022/01/26 05:29:40;;;;;;;117.97;42.00;;;4.50;99.90;;;;;;6153787;23;20413;-82
2022/01/26 05:32:06;;;;;;;116.77;40.70;;;4.50;99.90;;;;;;6152866;23;20009;-83
2022/01/26 05:34:32;;;;;;;123.97;43.47;;;4.50;99.90;;;;;;6153122;23;20010;-84
2022/01/26 05:36:58;;;;;;;118.67;40.33;;;4.50;99.90;;;;;;6152339;23;20494;-84
2022/01/26 05:39:24;;;;;;;123.77;42.87;;;4.50;99.90;;;;;;6153338;23;20021;-82
2022/01/26 05:41:50;;;;;;;117.30;43.33;;;4.50;99.90;;;;;;6152363;23;20064;-81
2022/01/26 05:44:21;;;;;;;119.83;41.17;;;4.40;99.90;;;;;;6152951;23;20100;-86
2022/01/26 05:46:49;;;;;;;118.03;41.67;;;4.50;99.90;;;;;;6127205;23;20009;-85
2022/01/26 05:49:17;;;;;;;120.87;41.67;;;4.40;99.90;;;;;;6126628;23;20079;-83
2022/01/26 05:51:46;;;;;;;117.57;41.90;;;4.50;99.90;;;;;;6151433;23;20010;-84
2022/01/26 05:54:13;;;;;;;117.28;40.67;;;4.50;99.90;;;;;;6152430;23;20033;-83
2022/01/26 05:56:39;;;;;;;120.73;42.43;;;4.50;99.90;;;;;;6151316;23;20262;-83
2022/01/26 05:59:05;;;;;;;117.03;41.43;;;4.60;99.90;;;;;;6152702;23;20423;-83
2022/01/26 06:01:30;;;;;;;119.30;43.13;;;4.50;99.90;;;;;;6151890;23;20009;-84
2022/01/26 06:03:56;;;;;;;115.33;43.30;;;4.50;99.90;;;;;;6125748;23;20270;-86
2022/01/26 06:06:22;;;;;;;114.90;42.23;;;4.50;99.90;;;;;;6151095;23;20009;-83
2022/01/26 06:08:48;;;;;;;116.57;41.63;;;4.60;99.90;;;;;;6153794;23;20090;-86
2022/01/26 06:11:14;;;;;;;121.90;44.53;;;4.60;99.90;;;;;;6152269;23;20032;-83
2022/01/26 06:13:39;;;;;;;119.07;42.03;;;4.60;99.90;;;;;;6126884;23;20037;-84
2022/01/26 06:16:05;;;;;;;120.37;43.40;;;4.60;99.90;;;;;;6152356;23;20013;-83
2022/01/26 06:18:31;;;;;;;124.73;42.87;;;4.50;99.90;;;;;;6153187;23;20035;-83
2022/01/26 06:20:57;;;;;;;114.80;42.00;;;4.60;99.90;;;;;;6152226;23;20107;-84
2022/01/26 06:23:25;;;;;;;116.77;41.97;;;4.60;99.90;;;;;;6152962;23;20024;-84
2022/01/26 06:25:53;;;;;;;122.00;43.00;;;4.50;99.90;;;;;;6151610;23;20032;-84
2022/01/26 06:28:19;;;;;;;115.60;42.20;;;4.60;99.90;;;;;;6153064;23;20001;-84
2022/01/26 06:30:46;;;;;;;116.77;40.97;;;4.60;99.90;;;;;;6152639;23;20040;-84
2022/01/26 06:33:13;;;;;;;123.90;41.97;;;4.60;99.90;;;;;;6152796;23;20088;-84
2022/01/26 06:35:40;;;;;;;120.37;41.67;;;4.60;99.90;;;;;;6125918;23;20427;-84
2022/01/26 06:38:07;;;;;;;119.00;41.27;;;4.60;99.90;;;;;;6151290;23;20014;-82
2022/01/26 06:40:43;;;;;;;117.47;40.07;;;4.50;99.90;;;;;;6152817;23;20036;-87
2022/01/26 06:47:50;;;;;;;115.03;39.43;;;4.50;99.90;;;;;;6033084;23;20018;-85
2022/01/26 06:50:05;;;;;;;120.67;41.43;;;4.50;99.90;;;;;;6147380;23;20005;-89
2022/01/26 06:52:31;;;;;;;;;;;4.60;99.90;;;;;;6153658;23;20016;-88
2022/01/26 06:57:49;;;;;;;;;;;4.60;99.90;;;;;;6200852;22;19958;-85
2022/01/26 07:00:18;;;;;;;;;;;4.60;99.90;;;;;;6211233;23;20322;-84
2022/01/26 07:02:43;;;;;;;;;;;4.60;99.90;;;;;;6213758;23;19916;-85
2022/01/26 07:05:10;;;;;;;;;;;4.60;99.90;;;;;;6186585;23;19981;-81
2022/01/26 07:07:36;;;;;;;;;;;4.60;99.90;;;;;;6212712;23;19907;-81
2022/01/26 07:10:02;;;;;;;;;;;4.60;99.90;;;;;;6213346;23;19983;-81
2022/01/26 07:12:28;;;;;;;;;;;4.60;99.90;;;;;;6212142;23;20449;-85
2022/01/26 07:23:07;;;;;;;;;;;4.60;99.90;;;;;;6213852;23;19903;-85
2022/01/26 07:25:41;;;;;;;;;;;4.70;99.90;;;;;;6210437;23;20219;-84
2022/01/26 07:28:07;;;;;;;;;;;4.60;99.90;;;;;;6187196;23;19982;-84
2022/01/26 07:30:36;;;;;;;;;;;4.60;99.90;;;;;;6213328;23;19928;-83
2022/01/26 07:33:10;;;;;;;;;;;4.70;99.90;;;;;;6213179;23;19954;-85
2022/01/26 07:35:35;;;;;;;;;;;4.60;99.90;;;;;;6212936;23;19971;-84
2022/01/26 07:38:03;;;;;;;;;;;4.60;99.90;;;;;;6213511;23;19926;-79
2022/01/26 07:40:29;;;;;;;;;;;4.60;99.90;;;;;;6212061;23;19904;-81
2022/01/26 07:42:55;;;;;;;;;;;4.60;99.90;;;;;;6186044;23;20329;-79
2022/01/26 07:45:21;;;;;;;;;;;4.60;99.90;;;;;;6214056;23;19904;-86
2022/01/26 07:47:51;;;;;;;;;;;4.70;99.90;;;;;;6212523;23;19903;-82
2022/01/26 07:50:20;;;;;;;;;;;4.70;99.90;;;;;;6215343;23;19915;-87
2022/01/26 07:52:46;;;;;;;;;;;4.70;99.90;;;;;;6214813;23;20246;-84
2022/01/26 07:55:15;;;;;;;;;;;4.60;99.90;;;;;;6214145;23;19911;-84
2022/01/26 07:57:43;;;;;;;;;;;4.70;99.90;;;;;;6181416;23;20318;-81
2022/01/26 08:00:09;;;;;;;;;;;4.70;99.90;;;;;;6184439;23;19983;-82
2022/01/26 08:02:44;;;;;;;;;;;4.70;99.90;;;;;;6182570;23;19908;-84
2022/01/26 08:05:10;;;;;;;;;;;4.60;99.90;;;;;;6183716;23;20300;-89
2022/01/26 08:13:35;;;;;;;;;;;4.60;99.90;;;;;;6138199;22;20334;-85
2022/01/26 08:16:01;;;;;;;;;;;4.60;99.90;;;;;;6154649;23;19909;-80
2022/01/26 08:18:27;;;;;;;;;;;4.60;99.90;;;;;;6128533;23;19955;-80
2022/01/26 08:20:52;;;;;;;;;;;4.60;99.90;;;;;;6153642;23;19992;-79
2022/01/26 08:23:20;;;;;;;;;;;4.70;99.90;;;;;;6154362;23;20003;-85
2022/01/26 08:25:46;;;;;;;;;;;4.80;99.90;;;;;;6153573;23;19999;-84
2022/01/26 09:57:06;;;;;;;;;;;4.70;99.90;;;;;;6173029;23;20026;-83
2022/01/26 09:59:32;;;;;;;;;;;4.70;99.90;;;;;;6152785;23;20063;-78
2022/01/26 10:01:58;;;;;;;;;;;4.80;99.90;;;;;;6154122;23;19908;-84
2022/01/26 10:04:27;;;;;;;;;;;4.80;99.90;;;;;;6153668;23;20004;-80
2022/01/26 10:07:26;;;;;;;;;;;4.80;99.90;;;;;;6153472;23;19936;-79
2022/01/26 10:18:16;;;;;;;;;;;4.70;99.90;;;;;;6153574;23;20345;-81
2022/01/26 10:20:43;;;;;;;;;;;4.70;99.90;;;;;;6152801;23;19911;-81
2022/01/26 10:23:12;;;;;;;;;;;4.70;99.90;;;;;;6153261;23;19975;-81
2022/01/26 10:25:40;;;;;;;;;;;4.70;99.90;;;;;;6150590;23;20296;-81
2022/01/26 10:28:09;;;;;;;;;;;4.70;99.90;;;;;;6153900;23;20255;-81
2022/01/26 10:30:35;;;;;;;;;;;4.70;99.90;;;;;;6153104;23;19908;-81
2022/01/26 10:33:06;;;;;;;;;;;4.80;99.90;;;;;;6126848;23;19904;-81
2022/01/26 10:35:31;;;;;;;;;;;4.90;99.90;;;;;;6153154;23;19904;-81
2022/01/26 10:37:57;;;;;;;;;;;4.80;99.90;;;;;;6153218;23;19912;-81
2022/01/26 10:40:25;;;;;;;;;;;4.90;99.90;;;;;;6153219;23;19908;-81
2022/01/26 10:42:54;;;;;;;;;;;4.80;99.90;;;;;;6152798;23;19992;-81
2022/01/26 10:45:30;;;;;;;;;;;4.80;99.90;;;;;;6152971;23;19904;-81
2022/01/26 10:48:07;;;;;;;;;;;4.80;99.90;;;;;;6153439;23;19936;-81
2022/01/26 10:50:48;;;;;;;;;;;4.90;99.90;;;;;;6152663;23;19931;-81
2022/01/26 10:53:19;;;;;;;;;;;4.80;99.90;;;;;;6152889;23;19905;-81
2022/01/26 10:55:45;;;;;;;;;;;4.90;99.90;;;;;;6151966;23;19909;-82
2022/01/26 10:58:10;;;;;;;;;;;4.90;99.90;;;;;;6153246;23;19909;-82
2022/01/26 11:00:37;;;;;;;;;;;4.90;99.90;;;;;;6152794;23;20323;-81
2022/01/26 11:03:03;;;;;;;;;;;4.90;99.90;;;;;;6152895;23;19920;-81
2022/01/26 11:05:29;;;;;;;;;;;4.90;99.90;;;;;;6152859;23;19951;-82
2022/01/26 11:07:56;;;;;;;;;;;4.80;99.90;;;;;;6152611;23;19912;-81
2022/01/26 11:10:30;;;;;;;;;;;4.90;99.90;;;;;;6153011;23;19904;-81
2022/01/26 11:12:55;;;;;;;;;;;4.80;99.90;;;;;;6153203;23;19904;-81
2022/01/26 11:15:22;;;;;;;;;;;4.80;99.90;;;;;;6152811;23;19911;-81
2022/01/26 11:17:48;;;;;;;;;;;4.70;99.90;;;;;;6126956;23;19905;-81
2022/01/26 11:20:18;;;;;;;;;;;4.70;99.90;;;;;;6153499;23;19905;-81
2022/01/26 11:22:54;;;;;;;;;;;4.70;99.90;;;;;;6164375;23;19908;-82
2022/01/26 11:25:20;;;;;;;;;;;4.70;99.90;;;;;;6214785;23;19915;-82
2022/01/26 11:27:46;;;;;;;;;;;4.70;99.90;;;;;;6214072;23;20314;-83
2022/01/26 11:36:28;;;;;;;;;;;5.30;99.90;;;;;;6169920;23;19923;-84
2022/01/26 11:46:55;;;;;;;;;;;5.10;99.90;;;;;;6155180;23;19959;-82
2022/01/26 11:49:25;;;;;;;;;;;5.00;99.90;;;;;;6155490;23;19911;-82
2022/01/26 11:51:52;;;;;;;;;;;5.10;99.90;;;;;;6154834;23;19920;-83
2022/01/26 11:54:19;;;;;;;;;;;5.00;99.90;;;;;;6154966;23;19909;-87
2022/01/26 11:56:55;;;;;;;;;;;5.00;99.90;;;;;;6154514;23;20007;-83
2022/01/26 11:59:22;;;;;;;;;;;4.90;99.90;;;;;;6155544;23;20319;-88
2022/01/26 12:01:56;;;;;;;;;;;4.80;99.90;;;;;;6129843;23;19908;-88
2022/01/26 12:04:24;;;;;;;;;;;4.90;99.90;;;;;;6144248;23;19916;-82
2022/01/26 12:06:57;;;;;;;;;;;4.80;99.90;;;;;;6184021;23;19904;-81
2022/01/26 12:09:23;;;;;;;;;;;4.70;99.90;;;;;;6184822;23;19938;-81
2022/01/26 12:11:55;;;;;;;;;;;4.80;99.90;;;;;;6183307;23;20277;-82
2022/01/26 12:14:22;;;;;;;;;;;4.80;99.90;;;;;;6183327;23;20318;-82
2022/01/26 12:16:51;;;;;;;;;;;4.70;99.90;;;;;;6207184;23;19908;-82
2022/01/26 12:38:21;;;;;;;;;;;4.60;99.90;;;;;;6180461;23;19911;-80
2022/01/26 12:43:34;;;;;;;;;;;4.80;99.90;;;;;;6182520;23;19911;-80
2022/01/26 12:46:00;;;;;;;;;;;4.70;99.90;;;;;;6182063;23;20269;-81
2022/01/26 12:48:26;;;;;;;;;;;4.70;99.90;;;;;;6182309;23;19904;-80
2022/01/26 12:50:53;;;;;;;;;;;4.80;99.90;;;;;;6181959;23;19912;-81
2022/01/26 12:53:22;;;;;;;;;;;4.80;99.90;;;;;;6182520;23;20035;-85
2022/01/26 12:55:52;;;;;;;;;;;4.90;99.90;;;;;;6181686;23;19940;-86
2022/01/26 12:58:27;;;;;;;;;;;4.90;99.90;;;;;;6181185;23;19908;-87
2022/01/26 13:04:00;;;;;;;95.13;29.93;;;4.90;99.90;;;;;;5066319;27;20361;-69
2022/01/26 13:06:28;;;;;;;95.70;32.72;;;4.90;99.90;;;;;;5065942;28;20024;-70
2022/01/26 13:08:56;;;;;;;96.23;33.93;;;4.90;99.90;;;;;;5067526;28;20025;-70
2022/01/26 13:11:28;;;;;;;95.57;31.73;;;4.90;99.90;;;;;;5066468;28;20025;-70
2022/01/26 13:14:19;;;;;;;93.77;31.93;;;4.90;99.90;;;;;;5065376;28;20472;-70
2022/01/26 13:17:18;;;;;;;92.57;31.20;;;4.90;99.90;;;;;;5057369;28;20025;-70
2022/01/26 13:25:53;;;;;;;90.77;29.83;;;4.80;99.90;;;;;;5066723;28;20037;-72
2022/01/26 13:47:35;;;;;;;83.83;27.83;;;4.90;99.90;;;;;;5065267;28;20033;-70
2022/01/26 13:52:53;;;;;;;86.33;29.53;;;4.90;99.90;;;;;;5065524;28;20037;-71
2022/01/26 14:00:21;;;;;;;83.87;29.73;;;5.00;99.90;;;;;;5063621;28;20139;-70
2022/01/26 14:02:52;;;;;;;87.72;29.65;;;5.00;99.90;;;;;;5064980;28;20060;-70
2022/01/26 14:05:18;;;;;;;81.53;28.67;;;5.00;99.90;;;;;;5047651;28;20374;-71
2022/01/26 14:07:44;;;;;;;81.80;29.47;;;5.00;99.90;;;;;;5038122;28;20052;-70
2022/01/26 14:10:10;;;;;;;79.07;28.77;;;5.00;99.90;;;;;;5044262;28;20033;-71
2022/01/26 14:12:40;;;;;;;78.10;28.23;;;5.00;99.90;;;;;;5046067;28;20057;-69
2022/01/26 14:15:08;;;;;;;77.10;26.63;;;5.00;99.90;;;;;;5053285;28;20029;-69
2022/01/26 14:17:53;;;;;;;77.57;28.30;;;5.00;99.90;;;;;;5051788;28;20087;-69
2022/01/26 14:23:15;;;;;;;80.77;28.43;;;4.90;99.90;;;;;;5052004;28;20032;-70
2022/01/26 14:25:48;;;;;;;84.60;28.97;;;4.90;99.90;;;;;;5050900;28;20669;-70
2022/01/26 14:28:17;;;;;;;76.87;28.47;;;4.90;99.90;;;;;;5051338;28;20576;-71
2022/01/26 14:33:37;;;;;;;84.63;28.53;;;4.90;99.90;;;;;;5032702;28;20120;-69
2022/01/26 14:54:31;;;;;;;80.63;29.03;;;5.00;99.90;;;;;;5066621;28;20381;-69
2022/01/26 15:19:17;;;;;;;90.43;29.33;;;4.90;99.90;;;;;;5050547;28;20025;-69
2022/01/26 15:49:16;;;;;;;78.57;29.70;;;5.00;99.90;;;;;;5068293;28;20032;-71
2022/01/26 16:05:18;;;;;;;77.03;30.80;;;5.00;99.90;;;;;;5049689;28;20055;-71
2022/01/26 16:07:50;;;;;;;78.00;28.00;;;4.90;99.90;;;;;;5049418;28;20029;-74
2022/01/26 16:21:24;;;;;;;77.72;28.85;;;5.00;99.90;;;;;;5020271;28;20041;-70
2022/01/26 16:38:00;;;;;;;80.57;29.50;;;5.00;99.90;;;;;;5049529;28;20025;-70
2022/01/26 18:07:13;;;;;;;92.13;31.87;;;5.10;99.90;;;;;;5051979;28;20028;-73
2022/01/26 18:38:45;;;;;;;79.57;29.40;;;4.70;99.90;;;;;;5052142;28;20048;-66
2022/01/26 18:49:39;;;;;;;77.30;29.27;;;4.70;99.90;;;;;;5051401;28;20028;-67
2022/01/26 18:52:07;;;;;;;73.53;27.63;;;4.70;99.90;;;;;;5051752;28;20036;-67
2022/01/26 18:54:35;;;;;;;80.03;28.33;;;4.70;99.90;;;;;;5051007;28;20466;-66
2022/01/26 18:57:05;;;;;;;76.40;27.75;;;4.70;99.90;;;;;;5051340;28;20044;-66
2022/01/26 18:59:31;;;;;;;72.00;27.92;;;4.70;99.90;;;;;;5050770;28;20041;-66
2022/01/26 19:01:58;;;;;;;74.27;27.13;;;4.70;99.90;;;;;;5051384;28;20041;-66
2022/01/26 19:04:44;;;;;;;77.27;28.23;;;4.70;99.90;;;;;;5050921;28;20021;-65
2022/01/26 19:07:10;;;;;;;77.97;27.30;;;4.70;99.90;;;;;;5052234;28;20025;-67
2022/01/26 19:09:43;;;;;;;68.93;25.93;;;4.70;99.90;;;;;;5049330;28;20021;-67
2022/01/26 19:12:13;;;;;;;66.47;24.73;;;4.60;99.90;;;;;;5041852;28;20426;-68
2022/01/26 19:14:43;;;;;;;66.80;25.98;;;4.70;99.90;;;;;;5022325;28;20032;-68
2022/01/26 19:19:56;;;;;;;69.87;25.87;;;4.60;99.90;;;;;;5050825;28;20093;-68
2022/01/26 19:25:16;;;;;;;68.60;25.30;;;4.60;99.90;;;;;;5070519;28;20045;-68
2022/01/26 19:46:50;;;;;;;67.43;25.90;;;4.60;99.90;;;;;;5045968;28;20112;-69
2022/01/26 19:54:27;;;;;;;61.03;23.77;;;4.70;99.90;;;;;;5050332;28;20033;-68
2022/01/26 19:56:53;;;;;;;62.80;24.03;;;4.70;99.90;;;;;;5050447;28;20082;-69
2022/01/26 19:59:19;;;;;;;56.40;23.10;;;4.70;99.90;;;;;;5031913;28;20025;-68
2022/01/26 20:01:45;;;;;;;66.80;25.17;;;4.60;99.90;;;;;;5050184;28;20058;-68
2022/01/26 20:04:11;;;;;;;68.67;24.53;;;4.60;99.90;;;;;;5032004;28;20057;-68
2022/01/26 20:06:38;;;;;;;62.03;24.37;;;4.60;99.90;;;;;;5048752;28;20113;-68
2022/01/26 20:09:13;;;;;;;59.90;23.87;;;4.60;99.90;;;;;;5050062;28;20099;-69
2022/01/26 20:11:45;;;;;;;66.30;23.93;;;4.60;99.90;;;;;;5049584;28;20037;-69
2022/01/26 20:14:11;;;;;;;61.70;23.23;;;4.60;99.90;;;;;;5049580;28;20037;-69
2022/01/26 20:16:37;;;;;;;59.77;23.73;;;4.60;99.90;;;;;;5049676;28;20040;-69
2022/01/26 20:19:04;;;;;;;63.17;23.70;;;4.60;99.90;;;;;;5049954;28;20370;-69
2022/01/26 20:21:30;;;;;;;60.43;23.10;;;4.70;99.90;;;;;;5031891;28;20037;-69
2022/01/26 20:23:56;;;;;;;63.37;23.23;;;4.60;99.90;;;;;;5049537;28;20083;-69
2022/01/26 20:26:22;;;;;;;63.90;24.63;;;4.60;99.90;;;;;;5049674;28;20119;-69
2022/01/26 20:28:49;;;;;;;65.90;26.03;;;4.60;99.90;;;;;;5049653;28;20469;-69
2022/01/26 20:31:21;;;;;;;61.80;24.40;;;4.60;99.90;;;;;;5049165;28;20115;-69
2022/01/26 20:33:48;;;;;;;69.90;26.50;;;4.60;99.90;;;;;;5049273;28;20037;-68
2022/01/26 20:36:16;;;;;;;68.23;24.37;;;4.60;99.90;;;;;;5049218;28;20430;-68
2022/01/26 20:38:42;;;;;;;63.57;25.10;;;4.60;99.90;;;;;;5049400;28;20041;-68
2022/01/26 20:41:08;;;;;;;66.97;24.73;;;4.60;99.90;;;;;;5049224;28;20040;-68
2022/01/26 20:43:35;;;;;;;59.23;22.97;;;4.60;99.90;;;;;;5049095;28;20051;-68
2022/01/26 20:46:05;;;;;;;61.80;23.40;;;4.70;99.90;;;;;;5031212;28;20029;-68
2022/01/26 20:48:34;;;;;;;60.37;23.33;;;4.60;99.90;;;;;;5049347;28;20089;-68
2022/01/26 20:51:01;;;;;;;55.97;22.13;;;4.60;99.90;;;;;;5049226;28;20078;-68
2022/01/26 20:53:27;;;;;;;55.87;22.33;;;4.60;99.90;;;;;;5049329;28;20117;-68
2022/01/26 20:55:53;;;;;;;60.00;22.60;;;4.70;99.90;;;;;;5049235;28;20083;-68
2022/01/26 20:58:18;;;;;;;56.70;21.83;;;4.70;99.90;;;;;;5049312;28;20505;-68
2022/01/26 21:00:44;;;;;;;58.10;21.90;;;4.70;99.90;;;;;;5048813;28;20112;-68
2022/01/26 21:03:13;;;;;;;52.53;20.50;;;4.70;99.90;;;;;;5049226;28;20040;-68
2022/01/26 21:05:40;;;;;;;55.87;21.80;;;4.70;99.90;;;;;;5049195;28;20143;-68
2022/01/26 21:08:06;;;;;;;53.40;20.40;;;4.70;99.90;;;;;;5049170;28;20021;-68
2022/01/26 21:10:32;;;;;;;54.33;20.70;;;4.70;99.90;;;;;;5049195;28;20445;-68
2022/01/26 21:12:58;;;;;;;55.60;20.07;;;4.70;99.90;;;;;;5031265;28;20044;-67
2022/01/26 21:15:24;;;;;;;52.17;20.80;;;4.60;99.90;;;;;;5048574;28;20025;-68
2022/01/26 21:17:51;;;;;;;53.00;20.33;;;4.70;99.90;;;;;;5049265;28;20097;-68
2022/01/26 21:20:20;;;;;;;51.40;20.90;;;4.60;99.90;;;;;;5049190;28;20118;-68
2022/01/26 21:22:47;;;;;;;46.00;19.40;;;4.60;99.90;;;;;;5049110;28;20037;-68
2022/01/26 21:25:14;;;;;;;51.73;20.07;;;4.60;99.90;;;;;;5051957;28;20421;-68
2022/01/26 21:27:40;;;;;;;51.93;19.53;;;4.50;99.90;;;;;;5053428;28;20470;-68
2022/01/26 21:30:08;;;;;;;51.00;19.80;;;4.60;99.90;;;;;;5052855;28;20032;-68
2022/01/26 21:32:35;;;;;;;58.23;22.20;;;4.60;99.90;;;;;;5053512;28;20108;-69
2022/01/26 21:35:01;;;;;;;52.67;21.00;;;4.60;99.90;;;;;;5053056;28;20041;-68
2022/01/26 21:37:27;;;;;;;53.87;22.27;;;4.60;99.90;;;;;;5053124;28;20044;-69
2022/01/26 21:39:53;;;;;;;52.53;20.40;;;4.60;99.90;;;;;;5053070;28;20033;-69
2022/01/26 21:42:19;;;;;;;48.83;20.43;;;4.60;99.90;;;;;;5053275;28;20098;-68
2022/01/26 21:44:46;;;;;;;54.17;20.60;;;4.60;99.90;;;;;;5052404;28;20029;-68
2022/01/26 21:47:15;;;;;;;51.73;20.50;;;4.70;99.90;;;;;;5035072;28;20080;-68
2022/01/26 21:49:41;;;;;;;53.15;23.08;;;4.60;99.90;;;;;;5053075;28;20446;-68
2022/01/26 21:52:08;;;;;;;52.00;21.23;;;4.60;99.90;;;;;;5053096;28;20033;-68
2022/01/26 21:54:34;;;;;;;50.23;20.90;;;4.60;99.90;;;;;;5052980;28;20029;-70
2022/01/26 21:57:00;;;;;;;51.23;20.97;;;4.60;99.90;;;;;;5054262;28;20115;-69
2022/01/26 21:59:26;;;;;;;54.20;21.10;;;4.60;99.90;;;;;;5053864;28;20032;-68
2022/01/26 22:01:52;;;;;;;54.10;21.13;;;4.60;99.90;;;;;;5053675;28;20032;-69
2022/01/26 22:04:18;;;;;;;52.23;20.40;;;4.60;99.90;;;;;;5052144;28;20469;-69
2022/01/26 22:06:44;;;;;;;53.50;20.50;;;4.70;99.90;;;;;;5052989;28;20021;-69
2022/01/26 22:09:10;;;;;;;53.70;20.77;;;4.70;99.90;;;;;;5052599;28;20033;-69
2022/01/26 22:11:38;;;;;;;59.23;21.40;;;4.70;99.90;;;;;;5052638;28;20044;-69
2022/01/26 22:14:04;;;;;;;51.27;20.33;;;4.70;99.90;;;;;;5052161;28;20162;-69
2022/01/26 22:16:30;;;;;;;58.80;22.30;;;4.70;99.90;;;;;;5051932;28;20514;-69
2022/01/26 22:18:56;;;;;;;54.90;21.43;;;4.70;99.90;;;;;;5034231;28;20029;-69
2022/01/26 22:21:29;;;;;;;50.90;20.20;;;4.70;99.90;;;;;;5052173;28;20457;-69
2022/01/26 22:23:55;;;;;;;50.97;20.50;;;4.70;99.90;;;;;;5051944;28;20118;-69
2022/01/26 22:26:22;;;;;;;53.70;21.00;;;4.70;99.90;;;;;;5052049;28;20059;-68
2022/01/26 22:28:50;;;;;;;53.43;21.67;;;4.80;99.90;;;;;;5052210;28;20039;-69
2022/01/26 22:31:16;;;;;;;55.40;21.57;;;4.80;99.90;;;;;;5051735;28;20020;-69
2022/01/26 22:33:42;;;;;;;55.70;22.13;;;4.80;99.90;;;;;;5051971;28;20071;-69
2022/01/26 22:36:08;;;;;;;54.50;22.07;;;4.80;99.90;;;;;;5050788;28;20049;-68
2022/01/26 22:38:34;;;;;;;57.97;22.07;;;4.80;99.90;;;;;;5050582;28;20100;-69
2022/01/26 22:41:00;;;;;;;57.97;22.17;;;4.80;99.90;;;;;;5051566;28;20132;-69
2022/01/26 22:43:26;;;;;;;57.10;21.33;;;4.80;99.90;;;;;;5050782;28;20233;-68
2022/01/26 22:45:52;;;;;;;57.07;22.53;;;4.80;99.90;;;;;;5051170;28;20025;-69
2022/01/26 22:48:20;;;;;;;59.83;23.97;;;4.80;99.90;;;;;;5051750;28;20024;-68
2022/01/26 22:50:55;;;;;;;59.43;23.63;;;4.90;99.90;;;;;;5051732;28;20086;-69
2022/01/26 22:53:22;;;;;;;63.23;23.50;;;4.90;99.90;;;;;;5051790;28;20075;-68